sensor_id;sensor_type;location;lat;lon;timestamp;pressure;altitude;pressure_sealevel;temperature;humidity
71344;BME280;59146;43.850;25.948;2023-11-21T00:02:05;100825.78;;;9.24;72.45
71344;BME280;59146;43.850;25.948;2023-11-21T00:04:31;100836.97;;;9.26;71.76
71344;BME280;59146;43.850;25.948;2023-11-21T00:06:56;100868.78;;;9.33;71.94
71344;BME280;59146;43.850;25.948;2023-11-21T00:09:22;100862.88;;;9.29;72.00
71344;BME280;59146;43.850;25.948;2023-11-21T00:11:48;100823.88;;;9.11;71.92
71344;BME280;59146;43.850;25.948;2023-11-21T00:14:13;100886.97;;;9.51;71.13
71344;BME280;59146;43.850;25.948;2023-11-21T00:16:41;100811.66;;;9.11;71.11
71344;BME280;59146;43.850;25.948;2023-11-21T00:19:06;100809.75;;;8.98;71.73
71344;BME280;59146;43.850;25.948;2023-11-21T00:21:32;100883.53;;;9.34;71.42
71344;BME280;59146;43.850;25.948;2023-11-21T00:23:57;100870.19;;;9.40;71.23
71344;BME280;59146;43.850;25.948;2023-11-21T00:26:23;100815.50;;;9.04;71.18
71344;BME280;59146;43.850;25.948;2023-11-21T00:28:49;100849.28;;;9.06;72.15
71344;BME280;59146;43.850;25.948;2023-11-21T00:31:15;100831.34;;;9.00;72.98
71344;BME280;59146;43.850;25.948;2023-11-21T00:33:41;100862.72;;;9.32;72.66
71344;BME280;59146;43.850;25.948;2023-11-21T00:36:07;100885.97;;;9.54;72.08
71344;BME280;59146;43.850;25.948;2023-11-21T00:38:35;100837.13;;;9.23;71.43
71344;BME280;59146;43.850;25.948;2023-11-21T00:41:00;100809.06;;;8.94;71.87
71344;BME280;59146;43.850;25.948;2023-11-21T00:43:26;100852.47;;;9.29;71.88
71344;BME280;59146;43.850;25.948;2023-11-21T00:45:51;100819.13;;;9.19;71.63
71344;BME280;59146;43.850;25.948;2023-11-21T00:48:17;100825.84;;;9.23;71.24
71344;BME280;59146;43.850;25.948;2023-11-21T00:50:43;100859.19;;;9.16;72.01
71344;BME280;59146;43.850;25.948;2023-11-21T00:53:09;100884.44;;;9.33;71.96
71344;BME280;59146;43.850;25.948;2023-11-21T00:55:34;100793.66;;;8.90;71.53
71344;BME280;59146;43.850;25.948;2023-11-21T00:58:00;100810.38;;;9.03;71.06
71344;BME280;59146;43.850;25.948;2023-11-21T01:00:25;100833.34;;;9.12;70.38
71344;BME280;59146;43.850;25.948;2023-11-21T01:02:51;100881.97;;;9.13;71.59
71344;BME280;59146;43.850;25.948;2023-11-21T01:05:17;100796.03;;;8.58;71.89
71344;BME280;59146;43.850;25.948;2023-11-21T01:07:42;100860.00;;;9.00;71.85
71344;BME280;59146;43.850;25.948;2023-11-21T01:10:08;100821.75;;;8.83;71.45
71344;BME280;59146;43.850;25.948;2023-11-21T01:12:36;100875.66;;;9.00;71.27
71344;BME280;59146;43.850;25.948;2023-11-21T01:15:05;100860.63;;;8.69;72.10
71344;BME280;59146;43.850;25.948;2023-11-21T01:17:34;100847.38;;;8.73;71.48
71344;BME280;59146;43.850;25.948;2023-11-21T01:20:00;100842.31;;;8.70;71.38
71344;BME280;59146;43.850;25.948;2023-11-21T01:22:26;100853.09;;;8.82;71.47
71344;BME280;59146;43.850;25.948;2023-11-21T01:24:54;100803.94;;;8.38;70.91
71344;BME280;59146;43.850;25.948;2023-11-21T01:27:19;100856.50;;;8.65;72.16
71344;BME280;59146;43.850;25.948;2023-11-21T01:29:45;100813.38;;;8.41;72.16
71344;BME280;59146;43.850;25.948;2023-11-21T01:32:11;100832.69;;;8.72;71.30
71344;BME280;59146;43.850;25.948;2023-11-21T01:34:36;100779.94;;;8.50;70.65
71344;BME280;59146;43.850;25.948;2023-11-21T01:37:02;100773.53;;;8.20;71.41
71344;BME280;59146;43.850;25.948;2023-11-21T01:39:31;100828.41;;;8.53;72.00
71344;BME280;59146;43.850;25.948;2023-11-21T01:41:57;100823.47;;;8.65;71.49
71344;BME280;59146;43.850;25.948;2023-11-21T01:44:24;100829.78;;;8.78;70.83
71344;BME280;59146;43.850;25.948;2023-11-21T01:46:50;100789.00;;;8.60;70.29
71344;BME280;59146;43.850;25.948;2023-11-21T01:49:16;100841.69;;;8.65;71.30
71344;BME280;59146;43.850;25.948;2023-11-21T01:51:47;100780.19;;;8.27;71.32
71344;BME280;59146;43.850;25.948;2023-11-21T01:54:14;100807.56;;;8.53;71.16
71344;BME280;59146;43.850;25.948;2023-11-21T01:56:40;100856.94;;;8.92;70.74
71344;BME280;59146;43.850;25.948;2023-11-21T01:59:05;100835.59;;;8.66;70.76
71344;BME280;59146;43.850;25.948;2023-11-21T02:01:33;100784.78;;;8.21;71.54
71344;BME280;59146;43.850;25.948;2023-11-21T02:03:59;100779.44;;;8.24;71.39
71344;BME280;59146;43.850;25.948;2023-11-21T02:06:24;100727.00;;;7.95;71.18
71344;BME280;59146;43.850;25.948;2023-11-21T02:08:51;100829.13;;;8.56;70.73
71344;BME280;59146;43.850;25.948;2023-11-21T02:11:16;100851.06;;;8.51;70.87
71344;BME280;59146;43.850;25.948;2023-11-21T02:13:42;100805.44;;;8.24;71.34
71344;BME280;59146;43.850;25.948;2023-11-21T02:16:10;100785.44;;;8.26;70.85
71344;BME280;59146;43.850;25.948;2023-11-21T02:18:38;100838.09;;;8.68;70.50
71344;BME280;59146;43.850;25.948;2023-11-21T02:21:04;100792.13;;;8.31;70.30
71344;BME280;59146;43.850;25.948;2023-11-21T02:23:30;100818.28;;;8.28;70.89
71344;BME280;59146;43.850;25.948;2023-11-21T02:25:55;100831.84;;;8.53;71.05
71344;BME280;59146;43.850;25.948;2023-11-21T02:28:21;100844.00;;;8.71;70.54
71344;BME280;59146;43.850;25.948;2023-11-21T02:30:53;100851.47;;;8.79;70.17
71344;BME280;59146;43.850;25.948;2023-11-21T02:33:24;100821.81;;;8.46;70.06
71344;BME280;59146;43.850;25.948;2023-11-21T02:35:50;100788.22;;;8.21;70.50
71344;BME280;59146;43.850;25.948;2023-11-21T02:38:20;100838.41;;;8.62;70.65
71344;BME280;59146;43.850;25.948;2023-11-21T02:40:46;100773.28;;;8.26;70.45
71344;BME280;59146;43.850;25.948;2023-11-21T02:43:11;100819.00;;;8.50;70.12
71344;BME280;59146;43.850;25.948;2023-11-21T02:45:36;100771.25;;;7.94;70.65
71344;BME280;59146;43.850;25.948;2023-11-21T02:48:02;100840.56;;;8.34;70.91
71344;BME280;59146;43.850;25.948;2023-11-21T02:50:28;100799.56;;;8.20;70.90
71344;BME280;59146;43.850;25.948;2023-11-21T02:52:55;100782.09;;;8.22;70.40
71344;BME280;59146;43.850;25.948;2023-11-21T02:55:22;100840.81;;;8.48;70.18
71344;BME280;59146;43.850;25.948;2023-11-21T02:57:50;100806.50;;;8.01;71.05
71344;BME280;59146;43.850;25.948;2023-11-21T03:00:16;100831.22;;;8.30;71.00
71344;BME280;59146;43.850;25.948;2023-11-21T03:02:42;100857.00;;;8.54;70.54
71344;BME280;59146;43.850;25.948;2023-11-21T03:05:08;100848.13;;;8.58;70.06
71344;BME280;59146;43.850;25.948;2023-11-21T03:07:36;100826.78;;;8.32;70.56
71344;BME280;59146;43.850;25.948;2023-11-21T03:10:01;100813.63;;;8.16;71.20
71344;BME280;59146;43.850;25.948;2023-11-21T03:12:27;100786.09;;;8.11;70.84
71344;BME280;59146;43.850;25.948;2023-11-21T03:14:52;100835.72;;;8.45;69.98
71344;BME280;59146;43.850;25.948;2023-11-21T03:17:19;100770.44;;;7.93;70.23
71344;BME280;59146;43.850;25.948;2023-11-21T03:19:44;100765.34;;;7.72;70.88
71344;BME280;59146;43.850;25.948;2023-11-21T03:22:10;100809.09;;;8.01;71.31
71344;BME280;59146;43.850;25.948;2023-11-21T03:24:37;100839.81;;;8.32;70.96
71344;BME280;59146;43.850;25.948;2023-11-21T03:27:04;100843.06;;;8.37;70.30
71344;BME280;59146;43.850;25.948;2023-11-21T03:29:29;100799.88;;;7.94;70.88
71344;BME280;59146;43.850;25.948;2023-11-21T03:31:54;100851.50;;;8.03;71.73
71344;BME280;59146;43.850;25.948;2023-11-21T03:34:25;100853.44;;;8.18;71.56
71344;BME280;59146;43.850;25.948;2023-11-21T03:36:53;100781.34;;;7.83;71.34
71344;BME280;59146;43.850;25.948;2023-11-21T03:39:22;100804.97;;;7.97;70.77
71344;BME280;59146;43.850;25.948;2023-11-21T03:41:48;100864.91;;;7.94;71.76
71344;BME280;59146;43.850;25.948;2023-11-21T03:44:14;100788.66;;;7.55;72.14
71344;BME280;59146;43.850;25.948;2023-11-21T03:46:39;100835.53;;;7.92;71.89
71344;BME280;59146;43.850;25.948;2023-11-21T03:49:05;100818.09;;;7.94;71.72
71344;BME280;59146;43.850;25.948;2023-11-21T03:51:30;100861.13;;;8.01;72.09
71344;BME280;59146;43.850;25.948;2023-11-21T03:53:56;100810.63;;;7.48;72.79
71344;BME280;59146;43.850;25.948;2023-11-21T03:56:21;100867.16;;;7.83;72.84
71344;BME280;59146;43.850;25.948;2023-11-21T03:58:47;100846.19;;;7.86;72.63
71344;BME280;59146;43.850;25.948;2023-11-21T04:01:22;100849.38;;;7.92;72.02
71344;BME280;59146;43.850;25.948;2023-11-21T04:03:49;100796.06;;;7.44;72.62
71344;BME280;59146;43.850;25.948;2023-11-21T04:06:14;100738.16;;;7.01;72.78
71344;BME280;59146;43.850;25.948;2023-11-21T04:08:40;100843.44;;;7.70;72.96
71344;BME280;59146;43.850;25.948;2023-11-21T04:11:05;100806.75;;;7.56;72.38
71344;BME280;59146;43.850;25.948;2023-11-21T04:13:30;100817.88;;;7.40;72.77
71344;BME280;59146;43.850;25.948;2023-11-21T04:15:56;100872.88;;;7.51;73.85
71344;BME280;59146;43.850;25.948;2023-11-21T04:18:22;100800.75;;;7.15;74.22
71344;BME280;59146;43.850;25.948;2023-11-21T04:20:48;100864.03;;;7.55;74.00
71344;BME280;59146;43.850;25.948;2023-11-21T04:23:14;100855.06;;;7.62;73.44
71344;BME280;59146;43.850;25.948;2023-11-21T04:25:40;100852.25;;;7.26;74.54
71344;BME280;59146;43.850;25.948;2023-11-21T04:28:06;100790.38;;;6.94;75.05
71344;BME280;59146;43.850;25.948;2023-11-21T04:30:31;100787.50;;;7.01;74.42
71344;BME280;59146;43.850;25.948;2023-11-21T04:32:58;100849.94;;;7.40;74.65
71344;BME280;59146;43.850;25.948;2023-11-21T04:35:23;100853.63;;;7.35;74.57
71344;BME280;59146;43.850;25.948;2023-11-21T04:37:49;100791.25;;;6.94;74.79
71344;BME280;59146;43.850;25.948;2023-11-21T04:40:16;100866.91;;;7.49;74.50
71344;BME280;59146;43.850;25.948;2023-11-21T04:42:41;100860.91;;;7.67;73.77
71344;BME280;59146;43.850;25.948;2023-11-21T04:45:07;100789.56;;;7.34;72.93
71344;BME280;59146;43.850;25.948;2023-11-21T04:47:37;100787.41;;;7.23;72.82
71344;BME280;59146;43.850;25.948;2023-11-21T04:50:03;100871.19;;;7.70;73.23
71344;BME280;59146;43.850;25.948;2023-11-21T04:52:29;100813.28;;;7.46;72.68
71344;BME280;59146;43.850;25.948;2023-11-21T04:54:54;100819.72;;;7.58;72.34
71344;BME280;59146;43.850;25.948;2023-11-21T04:57:21;100831.69;;;7.62;71.71
71344;BME280;59146;43.850;25.948;2023-11-21T04:59:48;100847.72;;;7.71;71.48
71344;BME280;59146;43.850;25.948;2023-11-21T05:02:14;100811.00;;;7.59;71.68
71344;BME280;59146;43.850;25.948;2023-11-21T05:04:39;100873.94;;;8.06;71.29
71344;BME280;59146;43.850;25.948;2023-11-21T05:07:04;100872.69;;;8.14;70.60
71344;BME280;59146;43.850;25.948;2023-11-21T05:09:30;100796.28;;;7.78;70.12
71344;BME280;59146;43.850;25.948;2023-11-21T05:11:57;100869.00;;;7.99;70.70
71344;BME280;59146;43.850;25.948;2023-11-21T05:14:23;100880.41;;;7.97;71.11
71344;BME280;59146;43.850;25.948;2023-11-21T05:16:48;100802.34;;;7.58;70.96
71344;BME280;59146;43.850;25.948;2023-11-21T05:19:16;100802.47;;;7.75;70.63
71344;BME280;59146;43.850;25.948;2023-11-21T05:21:41;100853.72;;;8.12;69.91
71344;BME280;59146;43.850;25.948;2023-11-21T05:24:06;100856.44;;;8.29;69.38
71344;BME280;59146;43.850;25.948;2023-11-21T05:26:32;100808.13;;;7.85;69.93
71344;BME280;59146;43.850;25.948;2023-11-21T05:28:57;100805.22;;;7.72;70.18
71344;BME280;59146;43.850;25.948;2023-11-21T05:31:23;100814.75;;;7.72;70.59
71344;BME280;59146;43.850;25.948;2023-11-21T05:33:48;100848.63;;;8.09;70.40
71344;BME280;59146;43.850;25.948;2023-11-21T05:36:13;100825.69;;;7.98;70.09
71344;BME280;59146;43.850;25.948;2023-11-21T05:38:39;100862.97;;;7.99;70.58
71344;BME280;59146;43.850;25.948;2023-11-21T05:41:04;100848.78;;;7.86;71.11
71344;BME280;59146;43.850;25.948;2023-11-21T05:43:30;100809.28;;;7.78;70.99
71344;BME280;59146;43.850;25.948;2023-11-21T05:45:56;100852.97;;;8.29;70.36
71344;BME280;59146;43.850;25.948;2023-11-21T05:48:21;100861.75;;;8.45;69.63
71344;BME280;59146;43.850;25.948;2023-11-21T05:50:47;100876.38;;;8.09;72.06
71344;BME280;59146;43.850;25.948;2023-11-21T05:53:15;100834.81;;;7.50;74.58
71344;BME280;59146;43.850;25.948;2023-11-21T05:55:42;100882.22;;;7.95;75.88
71344;BME280;59146;43.850;25.948;2023-11-21T05:58:07;100852.38;;;7.83;77.15
71344;BME280;59146;43.850;25.948;2023-11-21T06:00:33;100887.97;;;7.83;78.41
71344;BME280;59146;43.850;25.948;2023-11-21T06:02:59;100899.72;;;7.71;79.35
71344;BME280;59146;43.850;25.948;2023-11-21T06:05:25;100898.41;;;7.81;79.93
71344;BME280;59146;43.850;25.948;2023-11-21T06:07:52;100896.34;;;7.89;79.16
71344;BME280;59146;43.850;25.948;2023-11-21T06:10:19;100911.06;;;8.09;78.52
71344;BME280;59146;43.850;25.948;2023-11-21T06:12:45;100856.78;;;7.81;77.79
71344;BME280;59146;43.850;25.948;2023-11-21T06:15:11;100873.00;;;7.48;78.85
71344;BME280;59146;43.850;25.948;2023-11-21T06:17:41;100888.53;;;7.69;79.69
71344;BME280;59146;43.850;25.948;2023-11-21T06:20:08;100875.53;;;7.89;79.11
71344;BME280;59146;43.850;25.948;2023-11-21T06:22:38;100862.91;;;8.39;77.62
71344;BME280;59146;43.850;25.948;2023-11-21T06:25:05;100932.13;;;8.99;75.16
71344;BME280;59146;43.850;25.948;2023-11-21T06:27:32;100886.38;;;8.94;74.38
71344;BME280;59146;43.850;25.948;2023-11-21T06:29:58;100934.66;;;9.36;72.53
71344;BME280;59146;43.850;25.948;2023-11-21T06:32:23;100888.44;;;9.40;71.16
71344;BME280;59146;43.850;25.948;2023-11-21T06:34:49;100865.03;;;9.55;69.43
71344;BME280;59146;43.850;25.948;2023-11-21T06:37:15;100912.69;;;9.59;69.28
71344;BME280;59146;43.850;25.948;2023-11-21T06:39:40;100824.91;;;9.24;69.01
71344;BME280;59146;43.850;25.948;2023-11-21T06:42:06;100880.13;;;9.83;67.73
71344;BME280;59146;43.850;25.948;2023-11-21T06:44:32;100831.53;;;9.48;67.83
71344;BME280;59146;43.850;25.948;2023-11-21T06:46:58;100945.38;;;10.33;66.73
71344;BME280;59146;43.850;25.948;2023-11-21T06:49:24;100855.56;;;9.87;66.86
71344;BME280;59146;43.850;25.948;2023-11-21T06:51:49;100921.00;;;10.50;66.56
71344;BME280;59146;43.850;25.948;2023-11-21T06:54:15;100889.31;;;10.40;66.03
71344;BME280;59146;43.850;25.948;2023-11-21T06:56:40;100869.66;;;10.17;66.08
71344;BME280;59146;43.850;25.948;2023-11-21T06:59:06;100897.16;;;9.90;67.42
71344;BME280;59146;43.850;25.948;2023-11-21T07:01:31;100929.59;;;10.02;68.64
71344;BME280;59146;43.850;25.948;2023-11-21T07:04:04;100881.25;;;9.09;71.12
71344;BME280;59146;43.850;25.948;2023-11-21T07:06:30;100849.38;;;8.68;72.25
71344;BME280;59146;43.850;25.948;2023-11-21T07:08:56;100902.19;;;9.08;72.28
71344;BME280;59146;43.850;25.948;2023-11-21T07:11:22;100870.56;;;8.97;72.21
71344;BME280;59146;43.850;25.948;2023-11-21T07:13:47;100925.06;;;9.37;71.52
71344;BME280;59146;43.850;25.948;2023-11-21T07:16:13;100848.38;;;9.07;71.82
71344;BME280;59146;43.850;25.948;2023-11-21T07:18:40;100923.72;;;9.64;71.72
71344;BME280;59146;43.850;25.948;2023-11-21T07:21:05;100842.88;;;9.47;70.85
71344;BME280;59146;43.850;25.948;2023-11-21T07:23:31;100833.28;;;9.65;69.28
71344;BME280;59146;43.850;25.948;2023-11-21T07:25:56;100915.13;;;10.13;68.74
71344;BME280;59146;43.850;25.948;2023-11-21T07:28:24;100920.63;;;10.07;69.71
71344;BME280;59146;43.850;25.948;2023-11-21T07:30:49;100917.69;;;10.30;69.21
71344;BME280;59146;43.850;25.948;2023-11-21T07:33:15;100835.41;;;10.06;68.20
71344;BME280;59146;43.850;25.948;2023-11-21T07:35:41;100921.44;;;10.73;67.74
71344;BME280;59146;43.850;25.948;2023-11-21T07:38:06;100882.13;;;10.28;68.72
71344;BME280;59146;43.850;25.948;2023-11-21T07:40:32;100826.34;;;9.63;69.82
71344;BME280;59146;43.850;25.948;2023-11-21T07:42:57;100900.84;;;10.36;69.65
71344;BME280;59146;43.850;25.948;2023-11-21T07:45:23;100876.78;;;10.47;69.14
71344;BME280;59146;43.850;25.948;2023-11-21T07:47:48;100912.59;;;11.07;67.59
71344;BME280;59146;43.850;25.948;2023-11-21T07:50:14;100920.44;;;11.07;66.82
71344;BME280;59146;43.850;25.948;2023-11-21T07:52:39;100880.13;;;10.49;69.08
71344;BME280;59146;43.850;25.948;2023-11-21T07:55:05;100919.06;;;11.00;68.81
71344;BME280;59146;43.850;25.948;2023-11-21T07:57:31;100914.50;;;11.35;67.76
71344;BME280;59146;43.850;25.948;2023-11-21T07:59:56;100836.75;;;11.23;66.66
71344;BME280;59146;43.850;25.948;2023-11-21T08:02:22;100876.59;;;11.71;64.94
71344;BME280;59146;43.850;25.948;2023-11-21T08:04:47;100802.75;;;10.93;65.92
71344;BME280;59146;43.850;25.948;2023-11-21T08:07:17;100808.63;;;11.12;65.48
71344;BME280;59146;43.850;25.948;2023-11-21T08:09:42;100854.28;;;11.80;63.57
71344;BME280;59146;43.850;25.948;2023-11-21T08:12:09;100858.78;;;12.20;62.08
71344;BME280;59146;43.850;25.948;2023-11-21T08:14:36;100906.44;;;12.67;59.20
71344;BME280;59146;43.850;25.948;2023-11-21T08:17:04;100885.88;;;12.19;57.99
71344;BME280;59146;43.850;25.948;2023-11-21T08:19:29;100859.06;;;11.87;58.86
71344;BME280;59146;43.850;25.948;2023-11-21T08:21:54;100856.44;;;12.02;58.12
71344;BME280;59146;43.850;25.948;2023-11-21T08:24:21;100918.34;;;12.59;57.56
71344;BME280;59146;43.850;25.948;2023-11-21T08:26:46;100877.16;;;12.61;57.10
71344;BME280;59146;43.850;25.948;2023-11-21T08:29:12;100856.97;;;12.63;55.41
71344;BME280;59146;43.850;25.948;2023-11-21T08:31:37;100871.84;;;12.62;56.04
71344;BME280;59146;43.850;25.948;2023-11-21T08:34:03;100901.78;;;12.99;55.05
71344;BME280;59146;43.850;25.948;2023-11-21T08:36:29;100825.00;;;12.16;56.13
71344;BME280;59146;43.850;25.948;2023-11-21T08:38:58;100923.31;;;13.18;56.15
71344;BME280;59146;43.850;25.948;2023-11-21T08:41:24;100902.41;;;13.43;55.14
71344;BME280;59146;43.850;25.948;2023-11-21T08:43:50;100850.44;;;13.36;55.03
71344;BME280;59146;43.850;25.948;2023-11-21T08:46:16;100903.00;;;13.34;54.82
71344;BME280;59146;43.850;25.948;2023-11-21T08:48:44;100846.59;;;12.88;55.87
71344;BME280;59146;43.850;25.948;2023-11-21T08:51:11;100846.31;;;13.19;55.30
71344;BME280;59146;43.850;25.948;2023-11-21T08:53:37;100856.88;;;13.57;53.72
71344;BME280;59146;43.850;25.948;2023-11-21T08:56:03;100845.56;;;13.82;53.44
71344;BME280;59146;43.850;25.948;2023-11-21T08:58:30;100865.16;;;13.64;53.27
71344;BME280;59146;43.850;25.948;2023-11-21T09:00:56;100805.50;;;13.01;53.67
71344;BME280;59146;43.850;25.948;2023-11-21T09:03:21;100885.53;;;13.73;54.21
71344;BME280;59146;43.850;25.948;2023-11-21T09:05:47;100853.63;;;13.79;52.75
71344;BME280;59146;43.850;25.948;2023-11-21T09:08:12;100890.50;;;14.15;53.25
71344;BME280;59146;43.850;25.948;2023-11-21T09:10:41;100868.88;;;13.74;56.78
71344;BME280;59146;43.850;25.948;2023-11-21T09:13:08;100840.91;;;13.73;58.97
71344;BME280;59146;43.850;25.948;2023-11-21T09:15:34;100825.78;;;13.89;57.18
71344;BME280;59146;43.850;25.948;2023-11-21T09:18:00;100882.81;;;14.37;56.83
71344;BME280;59146;43.850;25.948;2023-11-21T09:20:26;100876.75;;;14.49;57.30
71344;BME280;59146;43.850;25.948;2023-11-21T09:22:52;100849.22;;;14.17;57.02
71344;BME280;59146;43.850;25.948;2023-11-21T09:25:17;100823.81;;;14.05;57.95
71344;BME280;59146;43.850;25.948;2023-11-21T09:27:44;100857.59;;;14.47;54.55
71344;BME280;59146;43.850;25.948;2023-11-21T09:30:11;100820.66;;;14.61;54.30
71344;BME280;59146;43.850;25.948;2023-11-21T09:32:39;100803.31;;;14.82;53.83
71344;BME280;59146;43.850;25.948;2023-11-21T09:35:05;100850.47;;;15.20;51.60
71344;BME280;59146;43.850;25.948;2023-11-21T09:37:33;100809.16;;;14.62;56.44
71344;BME280;59146;43.850;25.948;2023-11-21T09:39:59;100865.41;;;15.20;56.89
71344;BME280;59146;43.850;25.948;2023-11-21T09:42:36;100848.00;;;15.30;52.83
71344;BME280;59146;43.850;25.948;2023-11-21T09:47:55;100828.59;;;15.54;52.54
71344;BME280;59146;43.850;25.948;2023-11-21T09:50:21;100794.19;;;14.99;51.89
71344;BME280;59146;43.850;25.948;2023-11-21T09:55:27;100829.44;;;15.20;52.06
71344;BME280;59146;43.850;25.948;2023-11-21T09:57:56;100772.22;;;14.76;52.37
71344;BME280;59146;43.850;25.948;2023-11-21T10:00:22;100836.63;;;15.29;52.33
71344;BME280;59146;43.850;25.948;2023-11-21T10:02:49;100807.47;;;15.32;51.02
71344;BME280;59146;43.850;25.948;2023-11-21T10:05:15;100766.66;;;15.38;50.00
71344;BME280;59146;43.850;25.948;2023-11-21T10:07:43;100821.06;;;15.50;50.49
71344;BME280;59146;43.850;25.948;2023-11-21T10:10:10;100789.84;;;15.22;51.62
71344;BME280;59146;43.850;25.948;2023-11-21T10:12:36;100740.41;;;14.79;51.04
71344;BME280;59146;43.850;25.948;2023-11-21T10:15:09;100749.59;;;15.08;51.02
71344;BME280;59146;43.850;25.948;2023-11-21T10:17:38;100730.69;;;14.92;50.75
71344;BME280;59146;43.850;25.948;2023-11-21T10:20:10;100772.81;;;15.14;50.02
71344;BME280;59146;43.850;25.948;2023-11-21T10:22:45;100800.06;;;15.02;51.66
71344;BME280;59146;43.850;25.948;2023-11-21T10:25:12;100784.13;;;14.69;51.66
71344;BME280;59146;43.850;25.948;2023-11-21T10:27:40;100815.72;;;15.04;50.91
71344;BME280;59146;43.850;25.948;2023-11-21T10:30:10;100789.47;;;15.15;51.12
71344;BME280;59146;43.850;25.948;2023-11-21T10:32:39;100762.34;;;15.26;50.95
71344;BME280;59146;43.850;25.948;2023-11-21T10:35:09;100790.06;;;15.53;50.24
71344;BME280;59146;43.850;25.948;2023-11-21T10:37:36;100739.66;;;15.01;50.35
71344;BME280;59146;43.850;25.948;2023-11-21T10:40:08;100793.31;;;15.46;49.48
71344;BME280;59146;43.850;25.948;2023-11-21T10:42:38;100778.94;;;15.61;49.05
71344;BME280;59146;43.850;25.948;2023-11-21T10:45:04;100777.75;;;15.65;50.35
71344;BME280;59146;43.850;25.948;2023-11-21T10:47:38;100736.09;;;15.59;48.97
71344;BME280;59146;43.850;25.948;2023-11-21T10:50:04;100766.03;;;15.58;49.46
71344;BME280;59146;43.850;25.948;2023-11-21T10:52:29;100721.72;;;15.63;49.49
71344;BME280;59146;43.850;25.948;2023-11-21T10:54:55;100706.91;;;15.73;51.31
71344;BME280;59146;43.850;25.948;2023-11-21T10:57:21;100768.84;;;16.43;47.63
71344;BME280;59146;43.850;25.948;2023-11-21T10:59:49;100746.22;;;16.52;46.84
71344;BME280;59146;43.850;25.948;2023-11-21T11:02:23;100762.69;;;15.89;48.05
71344;BME280;59146;43.850;25.948;2023-11-21T11:04:52;100781.31;;;16.30;47.87
71344;BME280;59146;43.850;25.948;2023-11-21T11:07:17;100708.81;;;16.36;46.66
71344;BME280;59146;43.850;25.948;2023-11-21T11:09:44;100762.59;;;16.98;47.43
71344;BME280;59146;43.850;25.948;2023-11-21T11:12:11;100758.63;;;16.93;46.11
71344;BME280;59146;43.850;25.948;2023-11-21T11:14:40;100696.41;;;16.16;46.82
71344;BME280;59146;43.850;25.948;2023-11-21T11:17:07;100755.09;;;17.03;45.95
71344;BME280;59146;43.850;25.948;2023-11-21T11:19:34;100715.88;;;16.78;45.36
71344;BME280;59146;43.850;25.948;2023-11-21T11:30:15;100675.69;;;16.22;46.60
71344;BME280;59146;43.850;25.948;2023-11-21T11:35:42;100664.00;;;16.36;47.87
71344;BME280;59146;43.850;25.948;2023-11-21T11:38:12;100642.41;;;16.53;44.99
71344;BME280;59146;43.850;25.948;2023-11-21T11:40:45;100551.25;;;15.87;44.23
71344;BME280;59146;43.850;25.948;2023-11-21T11:43:11;100702.19;;;16.84;45.36
71344;BME280;59146;43.850;25.948;2023-11-21T11:45:37;100663.06;;;16.89;44.13
71344;BME280;59146;43.850;25.948;2023-11-21T11:48:07;100663.78;;;17.12;44.39
71344;BME280;59146;43.850;25.948;2023-11-21T11:50:33;100689.97;;;17.04;44.11
71344;BME280;59146;43.850;25.948;2023-11-21T11:53:13;100679.38;;;16.94;44.52
71344;BME280;59146;43.850;25.948;2023-11-21T11:55:39;100637.91;;;17.06;42.98
71344;BME280;59146;43.850;25.948;2023-11-21T11:58:06;100596.00;;;17.12;43.46
71344;BME280;59146;43.850;25.948;2023-11-21T12:02:59;100652.16;;;17.24;41.59
71344;BME280;59146;43.850;25.948;2023-11-21T12:05:29;100653.22;;;17.12;41.97
71344;BME280;59146;43.850;25.948;2023-11-21T12:07:59;100636.09;;;17.36;40.96
71344;BME280;59146;43.850;25.948;2023-11-21T12:10:35;100684.19;;;18.00;40.66
71344;BME280;59146;43.850;25.948;2023-11-21T12:13:10;100640.53;;;18.15;39.93
71344;BME280;59146;43.850;25.948;2023-11-21T12:15:37;100621.00;;;17.88;39.67
71344;BME280;59146;43.850;25.948;2023-11-21T12:18:04;100629.59;;;17.71;39.92
71344;BME280;59146;43.850;25.948;2023-11-21T12:20:33;100669.88;;;18.12;39.73
71344;BME280;59146;43.850;25.948;2023-11-21T12:23:04;100650.94;;;17.98;39.48
71344;BME280;59146;43.850;25.948;2023-11-21T12:25:31;100590.81;;;17.71;39.83
71344;BME280;59146;43.850;25.948;2023-11-21T12:28:02;100667.66;;;18.17;40.46
71344;BME280;59146;43.850;25.948;2023-11-21T12:30:33;100631.66;;;16.65;41.23
71344;BME280;59146;43.850;25.948;2023-11-21T12:33:01;100589.94;;;16.50;41.44
71344;BME280;59146;43.850;25.948;2023-11-21T12:35:31;100623.47;;;16.80;41.06
71344;BME280;59146;43.850;25.948;2023-11-21T12:38:00;100592.81;;;16.67;41.27
71344;BME280;59146;43.850;25.948;2023-11-21T12:40:27;100539.69;;;16.31;41.02
71344;BME280;59146;43.850;25.948;2023-11-21T12:42:55;100647.63;;;16.21;42.48
71344;BME280;59146;43.850;25.948;2023-11-21T12:45:23;100564.88;;;15.92;42.41
71344;BME280;59146;43.850;25.948;2023-11-21T12:47:51;100502.31;;;15.31;43.09
71344;BME280;59146;43.850;25.948;2023-11-21T12:50:21;100593.69;;;16.05;43.16
71344;BME280;59146;43.850;25.948;2023-11-21T12:52:52;100625.69;;;16.32;43.06
71344;BME280;59146;43.850;25.948;2023-11-21T12:55:22;100554.16;;;16.05;42.93
71344;BME280;59146;43.850;25.948;2023-11-21T12:57:52;100449.13;;;15.59;42.53
71344;BME280;59146;43.850;25.948;2023-11-21T13:00:52;100612.09;;;16.47;42.78
71344;BME280;59146;43.850;25.948;2023-11-21T13:03:19;100607.13;;;16.33;43.15